Time;durP1;ratioP1;P1;durP2;ratioP2;P2;SDS_P1;SDS_P2;PMS_P1;PMS_P2;Temp;Humidity;BMP_temperature;BMP_pressure;BME280_temperature;BME280_humidity;BME280_pressure;Samples;Min_cycle;Max_cycle;Signal;HPM_P1;HPM_P2
2022/07/09 00:01:38;;;;;;;;;;;20.00;69.00;;;;;;5044749;28;19956;-75
2022/07/09 00:04:04;;;;;;;;;;;19.90;69.20;;;;;;5053415;28;20003;-75
2022/07/09 00:06:31;;;;;;;;;;;19.90;69.40;;;;;;5063917;28;19919;-75
2022/07/09 00:08:57;;;;;;;;;;;19.90;69.20;;;;;;5067482;28;19955;-75
2022/07/09 00:11:23;;;;;;;;;;;19.90;69.40;;;;;;5067447;28;19948;-75
2022/07/09 00:13:48;;;;;;;;;;;19.90;69.10;;;;;;5065844;28;19963;-75
2022/07/09 00:16:14;;;;;;;;;;;19.80;69.30;;;;;;5066775;28;19936;-75
2022/07/09 00:18:39;;;;;;;;;;;19.80;69.50;;;;;;5067146;28;20367;-75
2022/07/09 00:21:05;;;;;;;;;;;19.80;69.50;;;;;;5066652;28;20398;-75
2022/07/09 00:23:30;;;;;;;;;;;19.80;69.40;;;;;;5067014;28;19917;-75
2022/07/09 00:25:56;;;;;;;;;;;19.80;69.50;;;;;;5067015;28;19930;-75
2022/07/09 00:28:21;;;;;;;;;;;19.80;69.50;;;;;;5066926;28;20349;-75
2022/07/09 00:30:47;;;;;;;;;;;19.80;69.80;;;;;;5067051;28;19913;-75
2022/07/09 00:33:12;;;;;;;;;;;19.70;69.60;;;;;;5066972;28;19913;-74
2022/07/09 00:35:38;;;;;;;;;;;19.70;69.80;;;;;;5066750;28;20485;-74
2022/07/09 00:38:04;;;;;;;;;;;19.60;69.80;;;;;;5064870;28;20645;-74
2022/07/09 00:40:29;;;;;;;;;;;19.70;69.90;;;;;;5048260;28;19919;-75
2022/07/09 00:42:55;;;;;;;;;;;19.70;70.10;;;;;;5066515;28;20026;-74
2022/07/09 00:45:20;;;;;;;;;;;19.60;70.00;;;;;;5066682;28;20349;-75
2022/07/09 00:47:46;;;;;;;;;;;19.60;70.10;;;;;;5066642;28;19922;-75
2022/07/09 00:50:11;;;;;;;;;;;19.60;70.00;;;;;;5066221;28;19915;-75
2022/07/09 00:52:38;;;;;;;;;;;19.60;70.10;;;;;;5066006;28;19912;-74
2022/07/09 00:55:06;;;;;;;;;;;19.60;70.30;;;;;;5065200;28;20425;-74
2022/07/09 00:57:33;;;;;;;;;;;19.50;70.30;;;;;;5063991;28;20027;-74
2022/07/09 00:59:58;;;;;;;;;;;19.50;70.10;;;;;;5065793;28;19989;-75
2022/07/09 01:02:24;;;;;;;;;;;19.50;70.30;;;;;;5065908;28;20027;-75
2022/07/09 01:04:50;;;;;;;;;;;19.50;70.30;;;;;;5064200;28;20296;-75
2022/07/09 01:07:15;;;;;;;;;;;19.50;70.50;;;;;;5047191;28;20314;-75
2022/07/09 01:09:41;;;;;;;;;;;19.50;70.70;;;;;;5046707;28;19947;-75
2022/07/09 01:12:07;;;;;;;;;;;19.40;70.60;;;;;;5049502;28;19924;-74
2022/07/09 01:14:32;;;;;;;;;;;19.40;70.70;;;;;;5047105;28;19955;-74
2022/07/09 01:16:59;;;;;;;;;;;19.40;70.80;;;;;;5046901;28;19917;-74
2022/07/09 01:19:25;;;;;;;;;;;19.40;70.80;;;;;;5046233;28;19920;-75
2022/07/09 01:21:51;;;;;;;;;;;19.30;70.50;;;;;;5046767;28;19913;-75
2022/07/09 01:24:16;;;;;;;;;;;19.30;70.80;;;;;;5045102;28;19924;-74
2022/07/09 01:26:42;;;;;;;;;;;19.30;70.90;;;;;;5046255;28;19913;-75
2022/07/09 01:29:08;;;;;;;;;;;19.30;70.80;;;;;;5046759;28;20007;-74
2022/07/09 01:31:33;;;;;;;;;;;19.30;71.10;;;;;;5046840;28;20338;-74
2022/07/09 01:33:59;;;;;;;;;;;19.30;70.70;;;;;;5053157;28;19909;-75
2022/07/09 01:36:24;;;;;;;;;;;19.20;71.10;;;;;;5064949;28;20010;-74
2022/07/09 01:38:50;;;;;;;;;;;19.20;71.20;;;;;;5060247;28;19943;-75
2022/07/09 01:41:15;;;;;;;;;;;19.20;71.20;;;;;;5064564;28;20387;-74
2022/07/09 01:43:41;;;;;;;;;;;19.20;71.50;;;;;;5065324;28;19943;-75
2022/07/09 01:46:06;;;;;;;;;;;19.20;71.00;;;;;;5046317;28;19939;-75
2022/07/09 01:48:33;;;;;;;;;;;19.20;71.50;;;;;;5046564;28;20612;-75
2022/07/09 01:50:59;;;;;;;;;;;19.20;71.50;;;;;;5046486;28;19913;-74
2022/07/09 01:53:25;;;;;;;;;;;19.10;71.30;;;;;;5046763;28;20381;-74
2022/07/09 01:55:50;;;;;;;;;;;19.10;71.70;;;;;;5046616;28;19916;-74
2022/07/09 01:58:16;;;;;;;;;;;19.10;71.70;;;;;;5048627;28;20517;-74
2022/07/09 02:00:41;;;;;;;;;;;19.10;71.60;;;;;;5047217;28;19909;-74
2022/07/09 02:03:07;;;;;;;;;;;19.10;71.70;;;;;;5047204;28;20622;-75
2022/07/09 02:05:33;;;;;;;;;;;19.10;71.60;;;;;;5065436;28;19919;-74
2022/07/09 02:07:58;;;;;;;;;;;19.00;71.20;;;;;;5064797;28;19913;-75
2022/07/09 02:10:23;;;;;;;;;;;19.00;71.50;;;;;;5064867;28;19968;-74
2022/07/09 02:12:49;;;;;;;;;;;19.00;71.80;;;;;;5064194;28;20286;-74
2022/07/09 02:15:14;;;;;;;;;;;19.00;72.00;;;;;;5064545;28;19920;-74
2022/07/09 02:17:40;;;;;;;;;;;19.00;72.00;;;;;;5064717;28;19912;-74
2022/07/09 02:20:06;;;;;;;;;;;19.00;72.20;;;;;;5064874;28;19913;-74
2022/07/09 02:22:31;;;;;;;;;;;19.00;72.20;;;;;;5063260;28;19955;-74
2022/07/09 02:24:57;;;;;;;;;;;19.00;72.30;;;;;;5064423;28;19924;-75
2022/07/09 02:27:22;;;;;;;;;;;19.00;72.10;;;;;;5063792;28;19912;-75
2022/07/09 02:29:48;;;;;;;;;;;19.00;72.20;;;;;;5062662;28;19913;-75
2022/07/09 02:32:13;;;;;;;;;;;19.00;72.20;;;;;;5062947;28;19913;-74
2022/07/09 02:34:39;;;;;;;;;;;18.90;72.20;;;;;;5064631;28;19928;-74
2022/07/09 02:37:05;;;;;;;;;;;19.00;72.40;;;;;;5064016;28;20750;-74
2022/07/09 02:39:30;;;;;;;;;;;19.00;72.40;;;;;;5051922;28;19913;-75
2022/07/09 02:41:56;;;;;;;;;;;19.00;72.30;;;;;;5056735;28;19916;-75
2022/07/09 02:44:21;;;;;;;;;;;18.90;72.30;;;;;;5063637;28;19912;-75
2022/07/09 02:46:47;;;;;;;;;;;18.90;72.30;;;;;;5063619;28;20293;-74
2022/07/09 02:49:12;;;;;;;;;;;18.90;72.40;;;;;;5064031;28;19919;-75
2022/07/09 02:51:38;;;;;;;;;;;19.00;72.20;;;;;;5063907;28;19916;-74
2022/07/09 02:54:04;;;;;;;;;;;18.90;72.70;;;;;;5063734;28;19916;-75
2022/07/09 02:56:29;;;;;;;;;;;18.90;72.60;;;;;;5061958;28;20427;-75
2022/07/09 02:58:55;;;;;;;;;;;18.90;72.60;;;;;;5062200;28;19939;-74
2022/07/09 03:01:20;;;;;;;;;;;18.90;72.50;;;;;;5046176;28;19912;-75
2022/07/09 03:03:46;;;;;;;;;;;18.90;72.40;;;;;;5052149;28;19921;-74
2022/07/09 03:06:12;;;;;;;;;;;18.90;72.40;;;;;;5063628;28;19917;-74
2022/07/09 03:08:38;;;;;;;;;;;18.90;72.50;;;;;;5063314;28;19912;-75
2022/07/09 03:11:06;;;;;;;;;;;18.90;72.80;;;;;;5063419;28;20387;-75
2022/07/09 03:13:35;;;;;;;;;;;18.90;72.60;;;;;;5063384;28;19920;-75
2022/07/09 03:16:01;;;;;;;;;;;18.90;72.50;;;;;;5063421;28;20338;-75
2022/07/09 03:18:26;;;;;;;;;;;18.90;72.80;;;;;;5062625;28;19916;-75
2022/07/09 03:20:52;;;;;;;;;;;18.80;72.90;;;;;;5062069;28;20860;-74
2022/07/09 03:23:17;;;;;;;;;;;18.90;72.90;;;;;;5063395;28;19916;-74
2022/07/09 03:25:43;;;;;;;;;;;18.90;72.90;;;;;;5063623;28;20041;-75
2022/07/09 03:28:09;;;;;;;;;;;18.90;72.80;;;;;;5063187;28;19971;-74
2022/07/09 03:30:34;;;;;;;;;;;18.90;72.90;;;;;;5063430;28;20029;-74
2022/07/09 03:33:00;;;;;;;;;;;18.90;72.90;;;;;;5058729;28;19947;-74
2022/07/09 03:35:26;;;;;;;;;;;18.80;73.00;;;;;;5063051;28;19915;-75
2022/07/09 03:37:51;;;;;;;;;;;18.90;72.90;;;;;;5062569;28;19969;-75
2022/07/09 03:40:17;;;;;;;;;;;18.80;73.00;;;;;;5044467;28;19923;-75
2022/07/09 03:42:42;;;;;;;;;;;18.80;73.30;;;;;;5061380;28;20299;-74
2022/07/09 03:45:08;;;;;;;;;;;18.90;73.20;;;;;;5062908;28;19931;-74
2022/07/09 03:47:33;;;;;;;;;;;18.90;73.10;;;;;;5061704;28;19913;-75
2022/07/09 03:49:59;;;;;;;;;;;18.90;73.20;;;;;;5060781;28;19912;-74
2022/07/09 03:52:24;;;;;;;;;;;18.80;73.00;;;;;;5063016;28;19908;-74
2022/07/09 03:54:50;;;;;;;;;;;18.80;73.10;;;;;;5057409;28;19952;-74
2022/07/09 03:57:15;;;;;;;;;;;18.80;73.00;;;;;;5059901;28;19912;-74
2022/07/09 03:59:41;;;;;;;;;;;18.80;73.30;;;;;;5061309;28;20001;-74
2022/07/09 04:02:07;;;;;;;;;;;18.80;73.00;;;;;;5062713;28;19917;-74
2022/07/09 04:04:33;;;;;;;;;;;18.80;73.10;;;;;;5062752;28;19978;-74
2022/07/09 04:06:58;;;;;;;;;;;18.80;73.10;;;;;;5054034;28;20483;-75
2022/07/09 04:09:24;;;;;;;;;;;18.80;73.20;;;;;;5044457;28;20382;-75
2022/07/09 04:11:49;;;;;;;;;;;18.90;73.20;;;;;;5054192;28;19924;-75
2022/07/09 04:14:15;;;;;;;;;;;18.90;73.20;;;;;;5062795;28;20582;-74
2022/07/09 04:16:40;;;;;;;;;;;18.90;73.20;;;;;;5054532;28;20421;-75
2022/07/09 04:19:06;;;;;;;;;;;18.90;73.10;;;;;;5045100;28;19955;-74
2022/07/09 04:21:32;;;;;;;;;;;18.80;73.20;;;;;;5043973;28;20011;-74
2022/07/09 04:23:57;;;;;;;;;;;18.80;73.20;;;;;;5062056;28;20031;-74
2022/07/09 04:26:23;;;;;;;;;;;18.80;73.20;;;;;;5062052;28;19913;-75
2022/07/09 04:28:49;;;;;;;;;;;18.80;73.30;;;;;;5062640;28;19962;-75
2022/07/09 04:31:15;;;;;;;;;;;18.80;73.20;;;;;;5062335;28;20323;-74
2022/07/09 04:33:42;;;;;;;;;;;18.90;73.20;;;;;;5061883;28;19939;-74
2022/07/09 04:36:08;;;;;;;;;;;18.90;73.20;;;;;;5053940;28;20409;-74
2022/07/09 04:38:33;;;;;;;;;;;18.90;73.20;;;;;;5050485;28;20003;-74
2022/07/09 04:40:59;;;;;;;;;;;18.90;73.20;;;;;;5062712;28;19921;-75
2022/07/09 04:43:24;;;;;;;;;;;18.90;73.30;;;;;;5062440;28;19912;-74
2022/07/09 04:45:50;;;;;;;;;;;18.80;73.30;;;;;;5062129;28;19966;-75
2022/07/09 04:48:15;;;;;;;;;;;18.90;73.30;;;;;;5061991;28;20452;-75
2022/07/09 04:50:41;;;;;;;;;;;18.90;73.30;;;;;;5060549;28;20384;-75
2022/07/09 04:53:06;;;;;;;;;;;18.90;73.30;;;;;;5045368;28;19920;-75
2022/07/09 04:55:32;;;;;;;;;;;18.90;73.40;;;;;;5045895;28;19915;-74
2022/07/09 04:57:57;;;;;;;;;;;18.80;73.30;;;;;;5047472;28;19928;-74
2022/07/09 05:00:23;;;;;;;;;;;18.90;73.50;;;;;;5047866;28;19912;-74
2022/07/09 05:02:48;;;;;;;;;;;18.90;73.70;;;;;;5047781;28;20589;-75
2022/07/09 05:05:14;;;;;;;;;;;18.90;73.50;;;;;;5065532;28;19958;-75
2022/07/09 05:07:40;;;;;;;;;;;18.80;73.30;;;;;;5065893;28;20392;-75
2022/07/09 05:10:06;;;;;;;;;;;18.80;73.40;;;;;;5065621;28;19909;-74
2022/07/09 05:12:31;;;;;;;;;;;18.80;73.40;;;;;;5065931;28;20365;-74
2022/07/09 05:14:57;;;;;;;;;;;18.80;73.30;;;;;;5065794;28;20717;-74
2022/07/09 05:17:23;;;;;;;;;;;18.80;73.70;;;;;;5065543;28;19916;-74
2022/07/09 05:19:48;;;;;;;;;;;18.80;73.50;;;;;;5065733;28;19913;-74
2022/07/09 05:22:14;;;;;;;;;;;18.80;73.60;;;;;;5065388;28;20369;-74
2022/07/09 05:24:40;;;;;;;;;;;18.80;73.70;;;;;;5065652;28;19912;-74
2022/07/09 05:27:06;;;;;;;;;;;18.80;73.60;;;;;;5064847;28;20571;-74
2022/07/09 05:29:32;;;;;;;;;;;18.90;73.70;;;;;;5065426;28;19912;-74
2022/07/09 05:31:57;;;;;;;;;;;18.90;73.90;;;;;;5065650;28;19909;-74
2022/07/09 05:34:23;;;;;;;;;;;18.90;73.80;;;;;;5065463;28;19931;-74
2022/07/09 05:36:51;;;;;;;;;;;18.90;74.00;;;;;;5063556;28;20304;-74
2022/07/09 05:39:17;;;;;;;;;;;18.90;73.60;;;;;;5061928;28;19938;-74
2022/07/09 05:41:42;;;;;;;;;;;18.90;73.40;;;;;;5064110;28;20011;-74
2022/07/09 05:44:09;;;;;;;;;;;18.90;73.30;;;;;;5065238;28;20273;-74
2022/07/09 05:46:35;;;;;;;;;;;19.00;73.70;;;;;;5054999;28;19927;-74
2022/07/09 05:49:00;;;;;;;;;;;19.00;73.30;;;;;;5046728;28;19919;-75
2022/07/09 05:51:25;;;;;;;;;;;19.00;73.60;;;;;;5046758;28;19936;-75
2022/07/09 05:53:51;;;;;;;;;;;19.00;73.40;;;;;;5046843;28;20046;-75
2022/07/09 05:56:17;;;;;;;;;;;19.10;73.40;;;;;;5045909;28;19913;-75
2022/07/09 05:58:42;;;;;;;;;;;19.10;73.50;;;;;;5044728;28;19913;-74
2022/07/09 06:01:08;;;;;;;;;;;19.10;73.40;;;;;;5046397;28;19924;-75
2022/07/09 06:03:33;;;;;;;;;;;19.10;73.40;;;;;;5046041;28;19932;-74
2022/07/09 06:05:59;;;;;;;;;;;19.10;73.60;;;;;;5053704;28;19913;-75
2022/07/09 06:08:25;;;;;;;;;;;19.10;73.60;;;;;;5064931;28;19913;-75
2022/07/09 06:10:51;;;;;;;;;;;19.10;73.60;;;;;;5064886;28;20553;-75
2022/07/09 06:13:16;;;;;;;;;;;19.10;73.60;;;;;;5063666;28;19917;-75
2022/07/09 06:15:42;;;;;;;;;;;19.10;73.70;;;;;;5045194;28;19920;-75
2022/07/09 06:18:07;;;;;;;;;;;19.10;73.70;;;;;;5045565;28;20332;-76
2022/07/09 06:20:33;;;;;;;;;;;19.20;73.60;;;;;;5046127;28;19913;-75
2022/07/09 06:22:58;;;;;;;;;;;19.20;74.40;;;;;;5045876;28;19917;-77
2022/07/09 06:25:24;;;;;;;;;;;19.20;73.60;;;;;;5046012;28;19913;-75
2022/07/09 06:27:49;;;;;;;;;;;19.10;73.70;;;;;;5045336;28;19957;-76
2022/07/09 06:30:15;;;;;;;;;;;19.20;73.60;;;;;;5049139;28;19920;-76
2022/07/09 06:32:40;;;;;;;;;;;19.20;73.50;;;;;;5045245;28;19916;-76
2022/07/09 06:35:06;;;;;;;;;;;19.20;73.60;;;;;;5049015;28;20514;-76
2022/07/09 06:37:32;;;;;;;;;;;19.20;73.40;;;;;;5064040;28;19981;-76
2022/07/09 06:39:59;;;;;;;;;;;19.30;73.30;;;;;;5053327;28;19920;-76
2022/07/09 06:42:25;;;;;;;;;;;19.30;73.40;;;;;;5048179;28;20353;-76
2022/07/09 06:44:50;;;;;;;;;;;19.30;73.20;;;;;;5051091;28;19921;-76
2022/07/09 06:47:16;;;;;;;;;;;19.30;73.30;;;;;;5049677;28;19908;-76
2022/07/09 06:49:41;;;;;;;;;;;19.30;73.70;;;;;;5057745;28;19912;-76
2022/07/09 06:52:07;;;;;;;;;;;19.30;74.10;;;;;;5049357;28;19913;-76
2022/07/09 06:54:33;;;;;;;;;;;19.30;75.00;;;;;;5056248;28;19919;-76
2022/07/09 06:56:59;;;;;;;;;;;19.30;75.80;;;;;;5046169;28;19908;-76
2022/07/09 06:59:24;;;;;;;;;;;19.40;75.80;;;;;;5046363;28;20269;-76
2022/07/09 07:01:50;;;;;;;;;;;19.40;76.30;;;;;;5046247;28;19912;-76
2022/07/09 07:04:16;;;;;;;;;;;19.40;77.10;;;;;;5056119;28;20061;-76
2022/07/09 07:06:41;;;;;;;;;;;19.40;76.90;;;;;;5064193;28;19909;-76
2022/07/09 07:09:08;;;;;;;;;;;19.40;77.00;;;;;;5063753;28;19958;-76
2022/07/09 07:11:33;;;;;;;;;;;19.40;77.20;;;;;;5055588;28;19913;-76
2022/07/09 07:13:59;;;;;;;;;;;19.40;77.20;;;;;;5045996;28;19913;-76
2022/07/09 07:16:24;;;;;;;;;;;19.40;77.60;;;;;;5049182;28;19913;-76
2022/07/09 07:18:50;;;;;;;;;;;19.40;77.50;;;;;;5064474;28;19913;-76
2022/07/09 07:21:15;;;;;;;;;;;19.40;77.40;;;;;;5060741;28;19912;-76
2022/07/09 07:23:41;;;;;;;;;;;19.50;77.10;;;;;;5048877;28;19919;-76
2022/07/09 07:26:06;;;;;;;;;;;19.50;77.10;;;;;;5048794;28;19951;-76
2022/07/09 07:28:32;;;;;;;;;;;19.50;77.10;;;;;;5058070;28;20025;-76
2022/07/09 07:30:57;;;;;;;;;;;19.60;77.60;;;;;;5051701;28;19924;-76
2022/07/09 07:33:23;;;;;;;;;;;19.60;77.50;;;;;;5058755;28;20261;-76
2022/07/09 07:35:48;;;;;;;;;;;19.70;77.30;;;;;;5049244;28;20377;-76
2022/07/09 07:38:14;;;;;;;;;;;19.70;77.20;;;;;;5061315;28;19912;-76
2022/07/09 07:40:39;;;;;;;;;;;19.70;76.90;;;;;;5061265;28;19919;-76
2022/07/09 07:43:05;;;;;;;;;;;19.80;76.90;;;;;;5061104;28;20501;-76
2022/07/09 07:45:31;;;;;;;;;;;19.70;76.70;;;;;;5060933;28;20250;-76
2022/07/09 07:47:57;;;;;;;;;;;19.80;76.70;;;;;;5063445;28;19916;-77
2022/07/09 07:50:22;;;;;;;;;;;19.80;76.30;;;;;;5056750;28;20508;-76
2022/07/09 07:52:48;;;;;;;;;;;19.80;76.30;;;;;;5054809;28;20022;-76
2022/07/09 07:55:14;;;;;;;;;;;19.80;76.20;;;;;;5045283;28;19913;-76
2022/07/09 07:57:39;;;;;;;;;;;19.90;76.20;;;;;;5048555;28;19913;-76
2022/07/09 08:00:05;;;;;;;;;;;19.90;76.20;;;;;;5045113;28;19912;-76
2022/07/09 08:02:31;;;;;;;;;;;19.90;75.90;;;;;;5046306;28;19913;-77
2022/07/09 08:04:57;;;;;;;;;;;19.90;76.10;;;;;;5060940;28;20361;-76
2022/07/09 08:07:22;;;;;;;;;;;19.90;75.90;;;;;;5055213;28;19913;-76
2022/07/09 08:09:48;;;;;;;;;;;20.00;75.80;;;;;;5064164;28;19913;-76
2022/07/09 08:12:13;;;;;;;;;;;20.10;75.80;;;;;;5057213;28;20547;-76
2022/07/09 08:14:39;;;;;;;;;;;20.10;75.50;;;;;;5058941;28;20754;-76
2022/07/09 08:17:05;;;;;;;;;;;20.10;75.50;;;;;;5045572;28;19941;-76
2022/07/09 08:19:30;;;;;;;;;;;20.10;75.30;;;;;;5050596;28;19913;-76
2022/07/09 08:21:56;;;;;;;;;;;20.20;75.00;;;;;;5051112;28;19913;-76
2022/07/09 08:24:22;;;;;;;;;;;20.20;74.70;;;;;;5053062;28;19958;-76
2022/07/09 08:26:47;;;;;;;;;;;20.30;74.90;;;;;;5062159;28;20119;-76
2022/07/09 08:29:13;;;;;;;;;;;20.30;74.50;;;;;;5064928;28;20533;-76
2022/07/09 08:31:38;;;;;;;;;;;20.30;74.60;;;;;;5064779;28;19939;-76
2022/07/09 08:34:04;;;;;;;;;;;20.40;74.50;;;;;;5060011;28;19912;-76
2022/07/09 08:36:29;;;;;;;;;;;20.40;74.40;;;;;;5056595;28;20309;-76
2022/07/09 08:38:55;;;;;;;;;;;20.50;74.10;;;;;;5061134;28;19913;-76
2022/07/09 08:41:22;;;;;;;;;;;20.60;74.00;;;;;;5060625;28;20576;-76
2022/07/09 08:43:51;;;;;;;;;;;20.60;73.80;;;;;;5051705;28;20013;-76
2022/07/09 08:46:18;;;;;;;;;;;20.70;73.60;;;;;;5062219;28;19928;-77
2022/07/09 08:48:44;;;;;;;;;;;20.70;73.10;;;;;;5059106;28;19987;-77
2022/07/09 08:51:10;;;;;;;;;;;20.80;73.00;;;;;;5058456;28;19913;-77
2022/07/09 08:53:39;;;;;;;;;;;20.80;72.80;;;;;;5055775;28;19912;-77
2022/07/09 08:56:05;;;;;;;;;;;20.80;72.70;;;;;;5051359;28;20306;-77
2022/07/09 08:58:31;;;;;;;;;;;20.90;72.70;;;;;;5055678;28;19967;-77
2022/07/09 09:00:58;;;;;;;;;;;20.90;72.70;;;;;;5063058;28;19984;-76
2022/07/09 09:03:23;;;;;;;;;;;20.90;72.70;;;;;;5057727;28;19952;-77
2022/07/09 09:06:03;;;;;;;;;;;20.90;72.80;;;;;;5058936;28;20493;-77
2022/07/09 09:08:33;;;;;;;;;;;21.00;72.50;;;;;;5062031;28;20583;-76
2022/07/09 09:10:58;;;;;;;;;;;21.00;72.10;;;;;;5049472;28;20322;-77
2022/07/09 09:13:23;;;;;;;;;;;21.10;71.90;;;;;;5060027;28;19919;-76
2022/07/09 09:15:49;;;;;;;;;;;21.10;71.70;;;;;;5051266;28;19913;-76
2022/07/09 09:18:15;;;;;;;;;;;21.10;71.70;;;;;;5049484;28;20255;-76
2022/07/09 09:20:44;;;;;;;;;;;21.20;71.80;;;;;;5059489;28;19919;-76
2022/07/09 09:23:15;;;;;;;;;;;21.20;72.40;;;;;;5065643;28;19995;-76
2022/07/09 09:25:41;;;;;;;;;;;21.20;71.60;;;;;;5053495;28;19963;-77
2022/07/09 09:28:07;;;;;;;;;;;21.30;71.10;;;;;;5057838;28;20541;-77
2022/07/09 09:30:40;;;;;;;;;;;21.40;71.40;;;;;;5056918;28;19920;-77
2022/07/09 09:33:05;;;;;;;;;;;21.40;70.40;;;;;;5060858;28;19913;-77
2022/07/09 09:35:34;;;;;;;;;;;21.40;70.40;;;;;;5066164;28;19986;-76
2022/07/09 09:37:59;;;;;;;;;;;21.50;70.40;;;;;;5064453;28;20737;-77
2022/07/09 09:40:25;;;;;;;;;;;21.50;70.20;;;;;;5053971;28;19991;-76
2022/07/09 09:42:52;;;;;;;;;;;21.60;69.90;;;;;;5053369;28;19917;-77
2022/07/09 09:45:18;;;;;;;;;;;21.60;69.90;;;;;;5052203;28;19916;-77
2022/07/09 09:47:47;;;;;;;;;;;21.60;69.80;;;;;;5051648;28;20277;-77
2022/07/09 09:50:16;;;;;;;;;;;21.60;69.60;;;;;;5063440;28;19913;-77
2022/07/09 09:52:42;;;;;;;;;;;21.60;69.60;;;;;;5051776;28;19989;-77
2022/07/09 09:55:08;;;;;;;;;;;21.60;69.60;;;;;;5061680;28;20730;-77
2022/07/09 09:57:35;;;;;;;;;;;21.60;69.30;;;;;;5058877;28;20007;-76
2022/07/09 10:00:01;;;;;;;;;;;21.70;69.30;;;;;;5059292;28;19934;-76
2022/07/09 10:02:27;;;;;;;;;;;21.70;69.00;;;;;;5060162;28;19912;-76
2022/07/09 10:04:52;;;;;;;;;;;21.80;69.00;;;;;;5050914;28;20576;-77
2022/07/09 10:07:18;;;;;;;;;;;21.80;69.00;;;;;;5060865;28;20273;-77
2022/07/09 10:09:57;;;;;;;;;;;21.90;69.10;;;;;;5052709;28;19913;-77
2022/07/09 10:12:29;;;;;;;;;;;21.90;69.00;;;;;;5058687;28;19999;-77
2022/07/09 10:14:55;;;;;;;;;;;21.90;69.00;;;;;;5053228;28;19912;-77
2022/07/09 10:17:22;;;;;;;;;;;22.00;69.00;;;;;;5058744;28;20537;-77
2022/07/09 10:19:52;;;;;;;;;;;22.10;68.90;;;;;;5063907;28;19915;-77
2022/07/09 10:22:17;;;;;;;;;;;22.10;69.00;;;;;;5055527;28;19913;-77
2022/07/09 10:24:44;;;;;;;;;;;22.10;69.00;;;;;;5058573;28;20585;-77
2022/07/09 10:27:10;;;;;;;;;;;22.10;68.80;;;;;;5053976;28;19913;-77
2022/07/09 10:29:37;;;;;;;;;;;22.10;68.70;;;;;;5055466;28;19919;-76
2022/07/09 10:32:03;;;;;;;;;;;22.20;68.90;;;;;;5062511;28;19985;-76
2022/07/09 10:34:35;;;;;;;;;;;22.20;68.70;;;;;;5060708;28;20061;-77
2022/07/09 10:37:01;;;;;;;;;;;22.20;68.80;;;;;;5054360;28;19913;-77
2022/07/09 10:39:27;;;;;;;;;;;22.20;68.70;;;;;;5060229;28;20038;-77
2022/07/09 10:41:59;;;;;;;;;;;22.30;68.70;;;;;;5052050;28;19991;-77
2022/07/09 10:44:26;;;;;;;;;;;22.40;68.60;;;;;;5057489;28;19969;-77
2022/07/09 10:46:57;;;;;;;;;;;22.40;68.40;;;;;;5060693;28;19923;-77
2022/07/09 10:49:25;;;;;;;;;;;22.40;68.30;;;;;;5064172;28;19912;-77
2022/07/09 10:51:54;;;;;;;;;;;22.50;68.40;;;;;;5060274;28;19912;-77
2022/07/09 10:54:19;;;;;;;;;;;22.50;68.40;;;;;;5063911;28;20498;-77
2022/07/09 10:56:46;;;;;;;;;;;22.50;68.40;;;;;;5055033;28;19912;-77
2022/07/09 10:59:15;;;;;;;;;;;22.40;68.50;;;;;;5054198;28;19913;-77
2022/07/09 11:01:41;;;;;;;;;;;22.40;68.70;;;;;;5063349;28;20265;-77
2022/07/09 11:04:06;;;;;;;;;;;22.40;68.80;;;;;;5051238;28;19931;-77
2022/07/09 11:06:32;;;;;;;;;;;22.40;69.00;;;;;;5057831;28;19913;-77
2022/07/09 11:08:58;;;;;;;;;;;22.40;68.70;;;;;;5056876;28;19951;-77
2022/07/09 11:11:23;;;;;;;;;;;22.40;68.80;;;;;;5055403;28;19928;-77
2022/07/09 11:13:50;;;;;;;;;;;22.40;68.90;;;;;;5056700;28;19935;-77
2022/07/09 11:16:21;;;;;;;;;;;22.40;68.90;;;;;;5050060;28;19912;-77
2022/07/09 11:18:46;;;;;;;;;;;22.60;68.90;;;;;;5053003;28;19962;-77
2022/07/09 11:21:12;;;;;;;;;;;22.70;68.20;;;;;;5064026;28;19963;-77
2022/07/09 11:23:37;;;;;;;;;;;22.80;67.90;;;;;;5050112;28;20397;-77
2022/07/09 11:26:03;;;;;;;;;;;22.80;68.00;;;;;;5052027;28;20007;-77
2022/07/09 11:28:28;;;;;;;;;;;22.90;67.70;;;;;;5064431;28;19913;-77
2022/07/09 11:30:58;;;;;;;;;;;23.00;67.50;;;;;;5060399;28;20077;-77
2022/07/09 11:33:24;;;;;;;;;;;23.00;67.70;;;;;;5061795;28;20007;-77
2022/07/09 11:35:49;;;;;;;;;;;23.00;67.80;;;;;;5058376;28;20075;-77
2022/07/09 11:38:15;;;;;;;;;;;23.10;67.50;;;;;;5058704;28;19912;-77
2022/07/09 11:40:40;;;;;;;;;;;23.30;67.00;;;;;;5050503;28;19920;-77
2022/07/09 11:43:15;;;;;;;;;;;23.30;67.20;;;;;;5054423;28;20263;-77
2022/07/09 11:45:51;;;;;;;;;;;23.40;66.90;;;;;;5054997;28;19971;-77
2022/07/09 11:48:16;;;;;;;;;;;23.40;67.30;;;;;;5059286;28;20633;-77
2022/07/09 11:50:43;;;;;;;;;;;23.30;67.00;;;;;;5055668;28;19916;-77
2022/07/09 11:53:18;;;;;;;;;;;23.30;67.50;;;;;;5058101;28;19913;-76
2022/07/09 11:55:44;;;;;;;;;;;23.20;67.60;;;;;;5059197;28;19908;-77
2022/07/09 11:58:09;;;;;;;;;;;23.10;67.90;;;;;;5060224;28;19923;-77
2022/07/09 12:00:39;;;;;;;;;;;23.00;68.00;;;;;;5052188;28;19920;-77
2022/07/09 12:03:05;;;;;;;;;;;22.90;68.00;;;;;;5059156;28;19916;-77
2022/07/09 12:05:31;;;;;;;;;;;22.90;67.80;;;;;;5055967;28;20281;-76
2022/07/09 12:07:58;;;;;;;;;;;22.90;67.80;;;;;;5058954;28;20452;-76
2022/07/09 12:10:28;;;;;;;;;;;22.90;68.20;;;;;;5058602;28;19913;-76
2022/07/09 12:12:54;;;;;;;;;;;22.90;68.00;;;;;;5060430;28;19909;-76
2022/07/09 12:15:19;;;;;;;;;;;23.00;68.10;;;;;;5059424;28;19919;-77
2022/07/09 12:17:50;;;;;;;;;;;23.00;67.80;;;;;;5063290;28;19913;-77
2022/07/09 12:20:15;;;;;;;;;;;23.00;67.50;;;;;;5058122;28;19912;-77
2022/07/09 12:22:41;;;;;;;;;;;23.00;67.40;;;;;;5054790;28;19916;-77
2022/07/09 12:25:07;;;;;;;;;;;23.00;67.50;;;;;;5056870;28;19923;-77
2022/07/09 12:27:33;;;;;;;;;;;23.00;67.80;;;;;;5056613;28;20308;-77
2022/07/09 12:29:58;;;;;;;;;;;22.80;68.10;;;;;;5055192;28;19909;-77
2022/07/09 12:32:24;;;;;;;;;;;22.80;68.00;;;;;;5057576;28;19920;-76
2022/07/09 12:34:50;;;;;;;;;;;22.70;68.10;;;;;;5051876;28;20581;-76
2022/07/09 12:37:15;;;;;;;;;;;22.70;68.40;;;;;;5056627;28;19913;-75
2022/07/09 12:39:41;;;;;;;;;;;22.70;68.70;;;;;;5062902;28;19917;-75
2022/07/09 12:42:06;;;;;;;;;;;22.60;69.80;;;;;;5060549;28;20006;-75
2022/07/09 12:44:32;;;;;;;;;;;22.50;70.30;;;;;;5056848;28;19920;-75
2022/07/09 12:46:57;;;;;;;;;;;22.30;71.50;;;;;;5055403;28;19967;-75
2022/07/09 12:49:23;;;;;;;;;;;22.30;72.90;;;;;;5069006;28;19908;-75
2022/07/09 12:51:48;;;;;;;;;;;22.20;74.40;;;;;;5060577;28;19928;-75
2022/07/09 12:54:14;;;;;;;;;;;22.20;74.10;;;;;;5058033;28;19912;-75
2022/07/09 12:56:40;;;;;;;;;;;22.10;74.20;;;;;;5062793;28;19970;-75
2022/07/09 12:59:05;;;;;;;;;;;22.10;76.00;;;;;;5071130;28;20262;-75
2022/07/09 13:01:31;;;;;;;;;;;22.10;76.70;;;;;;5056563;28;19923;-75
2022/07/09 13:03:56;;;;;;;;;;;22.00;77.90;;;;;;5059611;28;20011;-75
2022/07/09 13:06:31;;;;;;;;;;;22.00;77.90;;;;;;5068294;28;20254;-75
2022/07/09 13:08:57;;;;;;;;;;;21.90;78.60;;;;;;5054535;28;19913;-75
2022/07/09 13:11:22;;;;;;;;;;;21.90;79.80;;;;;;5061728;28;19908;-75
2022/07/09 13:13:48;;;;;;;;;;;21.80;80.80;;;;;;5056690;28;19964;-75
2022/07/09 13:16:13;;;;;;;;;;;21.80;82.00;;;;;;5061130;28;20002;-75
2022/07/09 13:18:39;;;;;;;;;;;21.80;83.10;;;;;;5067816;28;19919;-75
2022/07/09 13:21:04;;;;;;;;;;;21.70;82.80;;;;;;5052128;28;19951;-75
2022/07/09 13:23:30;;;;;;;;;;;21.70;82.80;;;;;;5063679;28;19923;-75
2022/07/09 13:25:56;;;;;;;;;;;21.60;82.00;;;;;;5064221;28;19936;-75
2022/07/09 13:28:22;;;;;;;;;;;21.60;83.10;;;;;;5059872;28;19921;-75
2022/07/09 13:30:47;;;;;;;;;;;21.60;84.30;;;;;;5061523;28;19917;-75
2022/07/09 13:33:13;;;;;;;;;;;21.60;83.40;;;;;;5051417;28;19970;-75
2022/07/09 13:35:38;;;;;;;;;;;21.60;82.20;;;;;;5059334;28;19924;-75
2022/07/09 13:38:04;;;;;;;;;;;21.60;83.60;;;;;;5061338;28;20007;-75
2022/07/09 13:40:29;;;;;;;;;;;21.60;84.00;;;;;;5065535;28;19931;-75
2022/07/09 13:42:55;;;;;;;;;;;21.60;84.10;;;;;;5056691;28;19916;-75
2022/07/09 13:45:20;;;;;;;;;;;21.70;84.00;;;;;;5059533;28;19925;-75
2022/07/09 13:47:46;;;;;;;;;;;21.80;81.60;;;;;;5052647;28;20023;-75
2022/07/09 13:50:11;;;;;;;;;;;21.90;79.90;;;;;;5059755;28;19915;-76
2022/07/09 13:52:37;;;;;;;;;;;22.10;80.90;;;;;;5065330;28;20003;-74
2022/07/09 13:55:03;;;;;;;;;;;22.20;81.50;;;;;;5062817;28;19932;-74
2022/07/09 13:57:28;;;;;;;;;;;22.30;82.50;;;;;;5053883;28;19920;-74
2022/07/09 13:59:54;;;;;;;;;;;22.50;82.20;;;;;;5062665;28;19916;-74
2022/07/09 14:02:19;;;;;;;;;;;22.60;81.10;;;;;;5066491;28;20041;-74
2022/07/09 14:04:46;;;;;;;;;;;22.60;81.10;;;;;;5060349;28;19947;-68
2022/07/09 14:07:12;;;;;;;;;;;22.70;80.50;;;;;;5057024;28;19913;-76
2022/07/09 14:09:37;;;;;;;;;;;22.80;80.00;;;;;;5064962;28;19924;-76